createdAt,value
2023-02-11T00:04:53.480Z,0
2023-02-11T00:09:55.223Z,0.88715
2023-02-11T00:14:56.991Z,0
2023-02-11T00:19:58.773Z,0
2023-02-11T00:25:00.563Z,0
2023-02-11T00:30:02.433Z,0
2023-02-11T00:35:04.309Z,0
2023-02-11T00:40:06.848Z,0
2023-02-11T00:45:08.812Z,0
2023-02-11T00:50:10.534Z,0
2023-02-11T00:55:12.421Z,0
2023-02-11T01:00:14.253Z,0
2023-02-11T01:05:16.068Z,0
2023-02-11T01:10:18.123Z,0
2023-02-11T01:15:19.902Z,0
2023-02-11T01:20:21.706Z,0
2023-02-11T01:25:23.479Z,0
2023-02-11T01:30:25.229Z,0
2023-02-11T01:35:27.027Z,0
2023-02-11T01:40:28.983Z,0
2023-02-11T01:45:30.800Z,0
2023-02-11T01:50:32.580Z,0
2023-02-11T01:55:34.192Z,0.88715
2023-02-11T02:00:35.769Z,0
2023-02-11T02:05:37.240Z,0
2023-02-11T02:10:39.010Z,0
2023-02-11T02:15:40.663Z,0
2023-02-11T02:20:42.428Z,0
2023-02-11T02:25:44.088Z,0
2023-02-11T02:30:45.809Z,0
2023-02-11T02:35:47.888Z,0
2023-02-11T02:40:50.098Z,0
2023-02-11T02:45:52.175Z,0.88715
2023-02-11T02:50:54.138Z,0
2023-02-11T02:55:55.898Z,0
2023-02-11T03:00:57.436Z,0
2023-02-11T03:05:58.968Z,0
2023-02-11T03:11:00.878Z,0
2023-02-11T03:16:02.413Z,0
2023-02-11T03:21:04.133Z,0
2023-02-11T03:26:05.815Z,0
2023-02-11T03:31:07.782Z,0.88715
2023-02-11T03:36:09.734Z,0.88715
2023-02-11T03:41:11.732Z,1.16185
2023-02-11T03:46:13.427Z,1.3463
2023-02-11T03:51:15.250Z,1.53075
2023-02-11T03:56:17.047Z,3.85445
2023-02-11T04:01:18.776Z,4.0389
2023-02-11T04:06:20.558Z,5.3852
2023-02-11T04:11:22.708Z,6.67635
2023-02-11T04:16:24.676Z,9.73785
2023-02-11T04:21:26.568Z,18.369
2023-02-11T04:26:28.541Z,16.7831
2023-02-11T04:31:30.423Z,17.57605
2023-02-11T04:36:32.326Z,23.1457
2023-02-11T04:41:34.024Z,31.1132
2023-02-11T04:46:35.736Z,41.9026
2023-02-11T04:51:37.652Z,29.45315
2023-02-11T04:56:39.281Z,34.96765
2023-02-11T05:01:40.882Z,33.6765
2023-02-11T05:06:42.415Z,46.6603
2023-02-11T05:11:44.077Z,55.29145
2023-02-11T05:16:45.823Z,39.00655
2023-02-11T05:22:01.386Z,43.7091
2023-02-11T05:27:04.346Z,57.00665
2023-02-11T05:32:05.864Z,43.65395
2023-02-11T05:37:07.473Z,50.201
2023-02-11T05:42:09.137Z,90.55385
2023-02-11T05:47:10.860Z,92.4535
2023-02-11T05:52:12.455Z,92.63795
2023-02-11T05:57:13.995Z,81.36935
2023-02-11T06:02:15.591Z,85.77715
2023-02-11T06:07:17.155Z,88.6732
2023-02-11T06:12:18.815Z,97.04575
2023-02-11T06:17:20.335Z,134.90945
2023-02-11T06:22:21.817Z,176.4983
2023-02-11T06:27:23.244Z,175.2813
2023-02-11T06:32:42.779Z,145.0352
2023-02-11T06:37:46.465Z,173.40065
2023-02-11T06:42:48.474Z,210.0835
2023-02-11T06:47:50.221Z,261.46535
2023-02-11T06:52:51.954Z,290.8082
2023-02-11T06:57:53.799Z,305.4349
2023-02-11T07:02:55.626Z,319.8373
2023-02-11T07:07:57.386Z,357.88545
2023-02-11T07:12:59.360Z,429.8877
2023-02-11T07:18:01.035Z,481.14025
2023-02-11T07:23:02.827Z,482.2831
2023-02-11T07:28:04.688Z,487.6303
2023-02-11T07:33:06.461Z,469.4096
2023-02-11T07:38:07.964Z,544.8974
2023-02-11T07:43:09.894Z,660.7019
2023-02-11T07:48:11.649Z,621.23145
2023-02-11T07:53:13.385Z,575.8623
2023-02-11T07:58:15.243Z,569.77545
2023-02-11T08:03:17.071Z,533.2409
2023-02-11T08:08:18.861Z,463.009
2023-02-11T08:13:20.933Z,424.64525
2023-02-11T08:18:22.716Z,443.31085
2023-02-11T08:23:24.537Z,441.59565
2023-02-11T08:28:26.445Z,404.94895
2023-02-11T08:33:27.976Z,417.5657
2023-02-11T08:38:29.781Z,383.2807
2023-02-11T08:43:31.863Z,321.1076
2023-02-11T08:48:33.610Z,318.56145
2023-02-11T08:53:35.185Z,380.3638
2023-02-11T08:58:36.772Z,395.9869
2023-02-11T09:03:38.347Z,376.9144
2023-02-11T09:08:39.943Z,407.84315
2023-02-11T09:13:41.590Z,370.86555
2023-02-11T09:18:43.078Z,274.35415
2023-02-11T09:23:44.556Z,305.88955
2023-02-11T09:28:46.141Z,252.62705
2023-02-11T09:33:47.819Z,274.242
2023-02-11T09:38:49.453Z,255.33865
2023-02-11T09:43:51.214Z,231.12425
2023-02-11T09:48:52.987Z,294.76925
2023-02-11T09:53:54.445Z,238.0212
2023-02-11T09:58:56.231Z,269.29985
2023-02-11T10:03:57.809Z,415.27445
2023-02-11T10:08:59.622Z,510.8483
2023-02-11T10:14:01.393Z,552.67675
2023-02-11T10:19:03.163Z,457.23405
2023-02-11T10:24:04.625Z,415.0177
2023-02-11T10:29:06.101Z,356.88535
2023-02-11T10:34:07.620Z,359.7244
2023-02-11T10:39:09.196Z,338.97655
2023-02-11T10:44:10.932Z,315.4258
2023-02-11T10:49:12.442Z,359.87455
2023-02-11T10:54:14.038Z,282.56125
2023-02-11T10:59:15.479Z,131.4582
2023-02-11T11:04:16.954Z,169.8011
2023-02-11T11:09:18.537Z,209.1747
2023-02-11T11:14:20.165Z,167.5877
2023-02-11T11:19:21.860Z,276.07305
2023-02-11T11:24:25.469Z,241.1397
2023-02-11T11:29:28.260Z,226.10795
2023-02-11T11:34:29.807Z,214.94965
2023-02-11T11:39:31.294Z,214.5446
2023-02-11T11:44:33.069Z,201.50565
2023-02-11T11:49:34.655Z,191.56435
2023-02-11T11:54:36.317Z,170.11485
2023-02-11T11:59:38.201Z,146.4158
2023-02-11T12:04:39.729Z,147.3932
2023-02-11T12:09:41.353Z,148.94295
2023-02-11T12:14:43.384Z,170.41145
2023-02-11T12:19:44.811Z,204.7896
2023-02-11T12:24:46.295Z,263.89935
2023-02-11T12:29:48.123Z,315.24505
2023-02-11T12:34:49.696Z,355.52745
2023-02-11T12:39:51.203Z,375.51395
2023-02-11T12:44:52.955Z,384.03935
2023-02-11T12:49:54.646Z,430.2756
2023-02-11T12:54:56.243Z,485.7918
2023-02-11T12:59:58.129Z,445.7504
2023-02-11T13:04:59.683Z,450.36165
2023-02-11T13:10:01.230Z,430.6233
2023-02-11T13:15:03.175Z,390.6434
2023-02-11T13:20:04.713Z,381.43805
2023-02-11T13:25:06.512Z,389.90375
2023-02-11T13:30:07.997Z,390.4571
2023-02-11T13:35:09.561Z,344.0364
2023-02-11T13:40:11.123Z,324.96745
2023-02-11T13:45:12.775Z,316.5019
2023-02-11T13:50:14.257Z,298.38965
2023-02-11T13:55:15.761Z,282.71325
2023-02-11T14:00:17.362Z,285.6626
2023-02-11T14:05:18.932Z,313.7523
2023-02-11T14:10:20.429Z,334.7226
2023-02-11T14:15:22.298Z,334.0038
2023-02-11T14:20:23.822Z,321.3889
2023-02-11T14:25:25.584Z,322.01455
2023-02-11T14:30:27.225Z,322.16285
2023-02-11T14:35:28.974Z,290.5343
2023-02-11T14:40:30.472Z,248.16985
2023-02-11T14:45:32.490Z,220.31885
2023-02-11T14:50:34.037Z,214.45235
2023-02-11T14:55:35.535Z,195.253
2023-02-11T15:00:37.109Z,172.8537
2023-02-11T15:05:38.581Z,147.8471
2023-02-11T15:10:40.094Z,134.8105
2023-02-11T15:15:41.796Z,135.09575
2023-02-11T15:20:43.346Z,141.7721
2023-02-11T15:25:44.772Z,130.781
2023-02-11T15:30:46.429Z,114.0704
2023-02-11T15:35:48.010Z,97.0043
2023-02-11T15:40:50.399Z,84.3034
2023-02-11T15:45:52.234Z,72.9458
2023-02-11T15:50:53.985Z,63.77615
2023-02-11T15:55:55.886Z,49.1836
2023-02-11T16:00:57.686Z,44.3245
2023-02-11T16:05:59.425Z,42.45595
2023-02-11T16:11:01.167Z,40.2977
2023-02-11T16:16:03.028Z,38.0843
2023-02-11T16:21:04.602Z,35.7606
2023-02-11T16:26:06.482Z,35.2624
2023-02-11T16:31:08.445Z,29.93235
2023-02-11T16:36:09.958Z,16.7831
2023-02-11T16:41:11.554Z,18.9775
2023-02-11T16:46:13.294Z,12.5033
2023-02-11T16:51:14.937Z,10.34635
2023-02-11T16:56:16.440Z,8.4467
2023-02-11T17:01:18.095Z,3.7332
2023-02-11T17:06:19.891Z,1.71845
2023-02-11T17:11:21.711Z,0.47405
2023-02-11T17:16:23.775Z,0
2023-02-11T17:21:27.051Z,0.88715
2023-02-11T17:26:29.927Z,0.88715
2023-02-11T17:31:31.910Z,0
2023-02-11T17:36:33.838Z,0
2023-02-11T17:41:35.328Z,0
2023-02-11T17:46:37.348Z,0
2023-02-11T17:51:39.093Z,0
2023-02-11T17:56:40.687Z,0
2023-02-11T18:01:42.438Z,0
2023-02-11T18:06:43.906Z,0
2023-02-11T18:11:45.375Z,0.88715
2023-02-11T18:16:47.272Z,0
2023-02-11T18:21:48.950Z,0
2023-02-11T18:26:50.548Z,0
2023-02-11T18:31:52.499Z,0
2023-02-11T18:36:54.343Z,0
2023-02-11T18:41:56.118Z,0
2023-02-11T18:46:57.962Z,0
2023-02-11T18:51:59.629Z,0
2023-02-11T18:57:01.053Z,0
2023-02-11T19:02:02.738Z,0
2023-02-11T19:07:05.492Z,0
2023-02-11T19:12:06.969Z,0.88715
2023-02-11T19:17:08.841Z,0
2023-02-11T19:22:11.166Z,0
2023-02-11T19:27:12.628Z,0
2023-02-11T19:32:14.299Z,0
2023-02-11T19:37:16.123Z,0
2023-02-11T19:42:18.019Z,0
2023-02-11T19:47:20.286Z,0.88715
2023-02-11T19:52:22.059Z,0
2023-02-11T19:57:23.563Z,0
2023-02-11T20:02:25.152Z,0
2023-02-11T20:07:26.712Z,0
2023-02-11T20:12:28.221Z,0
2023-02-11T20:17:29.949Z,0
2023-02-11T20:22:31.507Z,0
2023-02-11T20:27:33.011Z,0
2023-02-11T20:32:34.683Z,0
2023-02-11T20:37:36.127Z,0
2023-02-11T20:42:37.694Z,0
2023-02-11T20:47:39.381Z,0
2023-02-11T20:52:40.951Z,0
2023-02-11T20:57:42.469Z,0
2023-02-11T21:02:44.054Z,0
2023-02-11T21:07:45.531Z,0.88715
2023-02-11T21:12:49.564Z,0
2023-02-11T21:17:51.782Z,0
2023-02-11T21:22:53.298Z,0
2023-02-11T21:27:55.089Z,0
2023-02-11T21:32:56.871Z,0
2023-02-11T21:37:58.400Z,0
2023-02-11T21:43:00.007Z,0
2023-02-11T21:48:01.769Z,0
2023-02-11T21:53:05.936Z,0
2023-02-11T21:58:08.446Z,0
2023-02-11T22:03:09.952Z,0
2023-02-11T22:08:11.414Z,0
2023-02-11T22:13:13.006Z,0
2023-02-11T22:18:14.954Z,0
2023-02-11T22:23:16.553Z,0
2023-02-11T22:28:18.127Z,0
2023-02-11T22:33:19.601Z,0
2023-02-11T22:38:21.162Z,0
2023-02-11T22:43:22.626Z,0.88715
2023-02-11T22:48:24.373Z,0
2023-02-11T22:53:26.122Z,0
2023-02-11T22:58:27.640Z,0
2023-02-11T23:03:29.232Z,0
2023-02-11T23:08:30.674Z,0
2023-02-11T23:13:32.393Z,0
2023-02-11T23:18:34.046Z,0.88715
2023-02-11T23:23:35.497Z,0
2023-02-11T23:28:37.044Z,0
2023-02-11T23:33:39.088Z,0
2023-02-11T23:38:40.548Z,0
2023-02-11T23:43:42.108Z,0
2023-02-11T23:48:43.905Z,0
2023-02-11T23:53:45.439Z,0
2023-02-11T23:58:47.019Z,0
